Time;durP1;ratioP1;P1;durP2;ratioP2;P2;SDS_P1;SDS_P2;PMS_P1;PMS_P2;Temp;Humidity;BMP_temperature;BMP_pressure;BME280_temperature;BME280_humidity;BME280_pressure;Samples;Min_cycle;Max_cycle;Signal;HPM_P1;HPM_P2
2023/04/23 00:00:24;;;;;;;6.03;3.78;;;;;;;16.73;46.95;92775.97;4912279;29;20102;-90
2023/04/23 00:02:52;;;;;;;5.57;4.18;;;;;;;16.70;46.92;92780.44;4889250;29;20083;-90
2023/04/23 00:05:17;;;;;;;5.72;3.75;;;;;;;16.73;46.76;92781.41;4887315;29;20166;-91
2023/04/23 00:07:43;;;;;;;5.47;3.60;;;;;;;16.71;47.15;92775.72;4894672;29;20055;-90
2023/04/23 00:10:09;;;;;;;6.07;4.43;;;;;;;16.68;46.86;92768.56;4881972;29;20211;-90
2023/04/23 00:12:35;;;;;;;5.57;4.07;;;;;;;16.71;47.13;92773.75;4891611;29;20032;-89
2023/04/23 00:15:00;;;;;;;5.03;4.07;;;;;;;16.72;47.10;92775.22;4884120;29;20120;-90
2023/04/23 00:17:26;;;;;;;6.35;4.75;;;;;;;16.71;46.97;92768.28;4897697;29;20043;-90
2023/04/23 00:19:52;;;;;;;5.85;4.00;;;;;;;16.70;47.23;92779.72;4878857;29;20073;-90
2023/04/23 00:22:19;;;;;;;6.20;4.00;;;;;;;16.70;46.81;92766.06;4869294;29;20037;-90
2023/04/23 00:24:44;;;;;;;6.47;3.95;;;;;;;16.70;46.83;92766.81;4874392;29;20048;-91
2023/04/23 00:27:09;;;;;;;5.13;4.13;;;;;;;16.71;47.11;92762.81;4877565;29;20052;-90
2023/04/23 00:29:35;;;;;;;6.10;4.30;;;;;;;16.71;47.12;92770.28;4881065;29;20067;-90
2023/04/23 00:32:02;;;;;;;6.55;4.20;;;;;;;16.72;47.10;92760.84;4881319;29;20051;-91
2023/04/23 00:34:27;;;;;;;6.00;4.00;;;;;;;16.69;46.84;92764.59;4880720;29;20048;-90
2023/04/23 00:36:53;;;;;;;5.18;3.80;;;;;;;16.70;47.05;92760.59;4879434;29;20093;-92
2023/04/23 00:39:18;;;;;;;4.80;4.03;;;;;;;16.72;46.78;92756.13;4879704;29;20127;-90
2023/04/23 00:41:44;;;;;;;5.13;4.20;;;;;;;16.70;46.88;92758.63;4881175;29;20040;-90
2023/04/23 00:44:09;;;;;;;4.25;3.63;;;;;;;16.70;47.02;92758.63;4880058;29;20039;-91
2023/04/23 00:46:35;;;;;;;4.97;3.38;;;;;;;16.68;47.02;92749.47;4880563;29;20047;-90
2023/04/23 00:49:02;;;;;;;5.80;4.30;;;;;;;16.70;47.29;92758.63;4879970;29;20083;-90
2023/04/23 00:51:28;;;;;;;4.85;4.20;;;;;;;16.71;46.96;92751.16;4876314;29;20587;-91
2023/04/23 00:53:54;;;;;;;4.80;3.60;;;;;;;16.71;46.82;92745.72;4881880;29;20064;-90
2023/04/23 00:56:19;;;;;;;4.78;3.80;;;;;;;16.72;47.03;92763.56;4911656;29;20047;-90
2023/04/23 00:58:45;;;;;;;6.57;4.43;;;;;;;16.72;46.93;92749.91;4897526;29;20047;-91
2023/04/23 01:01:11;;;;;;;4.70;3.72;;;;;;;16.70;47.16;92755.88;4905371;29;20059;-90
2023/04/23 01:03:36;;;;;;;4.88;3.65;;;;;;;16.68;47.05;92760.38;4906450;29;20341;-91
2023/04/23 01:06:02;;;;;;;5.50;3.90;;;;;;;16.71;47.18;92762.09;4914552;29;20066;-90
2023/04/23 01:08:29;;;;;;;6.72;3.72;;;;;;;16.68;46.98;92761.13;4916295;29;20043;-90
2023/04/23 01:10:54;;;;;;;5.88;3.88;;;;;;;16.67;46.94;92756.19;4893790;29;20047;-90
2023/04/23 01:13:21;;;;;;;6.38;4.55;;;;;;;16.70;47.16;92757.88;4887926;29;20049;-90
2023/04/23 01:15:47;;;;;;;4.47;3.53;;;;;;;16.70;47.01;92766.06;4900728;29;20055;-90
2023/04/23 01:18:13;;;;;;;4.68;3.75;;;;;;;16.66;46.96;92760.19;4896857;29;20063;-90
2023/04/23 01:20:39;;;;;;;4.18;3.50;;;;;;;16.64;47.55;92765.41;4893569;29;20762;-91
2023/04/23 01:23:04;;;;;;;4.43;3.40;;;;;;;16.67;47.14;92759.63;4898668;29;20036;-90
2023/04/23 01:25:30;;;;;;;5.85;3.83;;;;;;;16.68;47.34;92761.13;4885900;29;20056;-91
2023/04/23 01:27:56;;;;;;;5.20;4.05;;;;;;;16.68;47.05;92771.28;4881823;29;20033;-90
2023/04/23 01:30:25;;;;;;;4.57;3.60;;;;;;;16.64;47.18;92768.16;4888486;29;20051;-91
2023/04/23 01:32:53;;;;;;;4.90;3.83;;;;;;;16.65;47.14;92764.91;4906963;29;20139;-90
2023/04/23 01:35:18;;;;;;;6.30;4.25;;;;;;;16.66;47.15;92771.09;4865160;29;20108;-90
2023/04/23 01:37:44;;;;;;;4.63;3.78;;;;;;;16.70;46.86;92772.25;4883556;29;20048;-91
2023/04/23 01:40:09;;;;;;;5.68;4.32;;;;;;;16.67;47.15;92765.09;4895182;29;20096;-90
2023/04/23 01:42:35;;;;;;;4.30;3.05;;;;;;;16.73;46.91;92773.22;4896872;29;20107;-90
2023/04/23 01:45:01;;;;;;;5.90;4.32;;;;;;;16.66;47.12;92771.09;4901192;29;20781;-90
2023/04/23 01:47:27;;;;;;;4.50;3.63;;;;;;;16.67;47.07;92767.84;4923991;29;20471;-90
2023/04/23 01:49:52;;;;;;;5.05;3.83;;;;;;;16.70;47.21;92771.53;4903130;29;20192;-90
2023/04/23 01:52:19;;;;;;;4.82;3.85;;;;;;;16.66;47.36;92768.38;4895984;29;20028;-91
2023/04/23 01:54:44;;;;;;;4.30;3.90;;;;;;;16.63;47.25;92772.88;4896801;29;20039;-90
2023/04/23 01:57:11;;;;;;;6.20;4.35;;;;;;;16.67;47.42;92775.31;4903328;29;20391;-90
2023/04/23 01:59:37;;;;;;;4.47;3.42;;;;;;;16.64;47.51;92777.06;4908158;29;20048;-90
2023/04/23 02:02:02;;;;;;;4.57;3.83;;;;;;;16.65;46.94;92778.53;4907316;29;20055;-91
2023/04/23 02:04:28;;;;;;;4.85;4.03;;;;;;;16.66;47.16;92779.28;4885864;29;20039;-89
2023/04/23 02:06:53;;;;;;;5.03;3.90;;;;;;;16.66;47.40;92774.56;4903127;29;20047;-90
2023/04/23 02:09:19;;;;;;;5.35;3.70;;;;;;;16.66;47.13;92771.09;4894835;29;20776;-90
2023/04/23 02:11:44;;;;;;;5.75;3.83;;;;;;;16.65;47.20;92769.63;4917816;29;20078;-90
2023/04/23 02:14:10;;;;;;;5.38;4.22;;;;;;;16.65;47.22;92783.28;4908566;29;20036;-90
2023/04/23 02:16:35;;;;;;;5.47;3.83;;;;;;;16.65;47.42;92784.00;4878293;29;20048;-90
2023/04/23 02:19:00;;;;;;;5.03;3.85;;;;;;;16.68;47.37;92787.66;4897161;29;20046;-90
2023/04/23 02:21:26;;;;;;;5.22;4.13;;;;;;;16.64;47.48;92789.97;4885174;29;20047;-90
2023/04/23 02:23:52;;;;;;;5.15;4.38;;;;;;;16.63;47.52;92781.06;4895775;29;20044;-91
2023/04/23 02:26:17;;;;;;;4.55;3.88;;;;;;;16.64;47.64;92781.78;4879827;29;20365;-91
2023/04/23 02:28:43;;;;;;;5.93;4.80;;;;;;;16.64;47.36;92779.81;4898196;29;20032;-90
2023/04/23 02:31:10;;;;;;;4.80;4.05;;;;;;;16.66;47.19;92779.28;4880308;29;20048;-91
2023/04/23 02:33:35;;;;;;;4.90;4.03;;;;;;;16.64;47.49;92785.25;4867215;29;20044;-89
2023/04/23 02:36:01;;;;;;;5.45;3.97;;;;;;;16.67;47.07;92778.75;4911646;29;20043;-90
2023/04/23 02:38:28;;;;;;;6.18;4.63;;;;;;;16.64;47.14;92787.25;4891813;29;20362;-91
2023/04/23 02:40:53;;;;;;;5.43;4.28;;;;;;;16.62;47.38;92785.00;4888479;29;20138;-90
2023/04/23 02:43:18;;;;;;;4.50;3.78;;;;;;;16.62;47.16;92781.53;4884969;29;20045;-90
2023/04/23 02:45:47;;;;;;;7.03;4.40;;;;;;;16.63;47.45;92780.28;4920635;29;20052;-90
2023/04/23 02:48:12;;;;;;;5.97;4.50;;;;;;;16.64;47.16;92787.97;4895809;29;20080;-90
2023/04/23 02:50:38;;;;;;;5.28;3.50;;;;;;;16.64;47.30;92793.44;4920409;29;20039;-90
2023/04/23 02:53:04;;;;;;;5.30;3.72;;;;;;;16.63;47.21;92791.97;4926580;29;20039;-91
2023/04/23 02:55:30;;;;;;;6.18;4.15;;;;;;;16.62;47.36;92789.72;4900849;29;20044;-91
2023/04/23 02:57:57;;;;;;;4.30;3.83;;;;;;;16.64;47.44;92789.97;4907990;29;20039;-91
2023/04/23 03:00:22;;;;;;;4.53;3.83;;;;;;;16.62;47.23;92789.72;4913954;29;22932;-91
2023/04/23 03:02:48;;;;;;;5.43;4.28;;;;;;;16.62;47.09;92781.53;4900339;29;20044;-90
2023/04/23 03:05:13;;;;;;;4.43;3.92;;;;;;;16.64;47.37;92785.25;4898276;29;20126;-90
2023/04/23 03:07:39;;;;;;;4.72;3.47;;;;;;;16.64;47.08;92782.53;4896988;29;20044;-92
2023/04/23 03:10:05;;;;;;;7.72;4.35;;;;;;;16.64;47.29;92779.81;4894193;29;20051;-89
2023/04/23 03:12:31;;;;;;;5.72;4.15;;;;;;;16.59;47.54;92780.56;4885704;29;20052;-91
2023/04/23 03:14:56;;;;;;;5.18;3.95;;;;;;;16.62;47.34;92776.06;4889814;29;20064;-90
2023/04/23 03:17:22;;;;;;;5.00;3.95;;;;;;;16.61;47.52;92780.06;4891106;29;20047;-90
2023/04/23 03:19:47;;;;;;;6.07;4.35;;;;;;;16.64;47.16;92776.34;4879548;29;20040;-90
2023/04/23 03:22:13;;;;;;;5.70;4.15;;;;;;;16.67;47.20;92778.03;4894143;29;20043;-90
2023/04/23 03:24:38;;;;;;;5.40;4.00;;;;;;;16.61;47.62;92777.31;4898724;29;20043;-91
2023/04/23 03:27:04;;;;;;;4.60;4.15;;;;;;;16.65;47.23;92775.09;4893660;29;20075;-90
2023/04/23 03:29:29;;;;;;;5.80;4.35;;;;;;;16.61;47.29;92778.06;4897478;29;20056;-91
2023/04/23 03:31:55;;;;;;;5.78;4.25;;;;;;;16.62;47.29;92776.06;4885320;29;20039;-90
2023/04/23 03:34:21;;;;;;;5.95;4.25;;;;;;;16.63;47.54;92775.59;4897584;29;20043;-90
2023/04/23 03:36:47;;;;;;;5.05;3.90;;;;;;;16.61;47.35;92771.88;4894070;29;20058;-91
2023/04/23 03:39:14;;;;;;;5.88;4.25;;;;;;;16.63;47.13;92772.88;4886603;29;20044;-91
2023/04/23 03:41:39;;;;;;;4.85;4.20;;;;;;;16.60;47.37;92776.59;4893822;29;20510;-90
2023/04/23 03:44:05;;;;;;;6.10;4.60;;;;;;;16.58;47.39;92781.81;4882579;29;20036;-90
2023/04/23 03:46:30;;;;;;;4.85;3.97;;;;;;;16.59;47.31;92777.84;4905582;29;20043;-91
2023/04/23 03:48:56;;;;;;;4.68;3.75;;;;;;;16.61;47.11;92783.53;4887383;29;20036;-91
2023/04/23 03:51:21;;;;;;;5.40;4.45;;;;;;;16.63;47.41;92783.78;4873244;29;20036;-91
2023/04/23 03:53:47;;;;;;;7.60;4.28;;;;;;;16.61;47.41;92780.78;4894292;29;20040;-90
2023/04/23 03:56:13;;;;;;;5.60;4.18;;;;;;;16.60;47.57;92782.03;4896699;29;20085;-91
2023/04/23 03:58:38;;;;;;;6.65;4.90;;;;;;;16.60;47.36;92784.78;4887610;29;20036;-90
2023/04/23 04:01:04;;;;;;;5.63;4.35;;;;;;;16.62;47.61;92779.53;4898794;29;20051;-90
2023/04/23 04:03:29;;;;;;;5.47;4.03;;;;;;;16.60;47.63;92784.78;4886907;29;20039;-91
2023/04/23 04:05:55;;;;;;;6.18;4.55;;;;;;;16.59;47.53;92783.28;4913830;29;20156;-90
2023/04/23 04:08:21;;;;;;;4.72;3.83;;;;;;;16.60;47.40;92784.78;4895345;29;20036;-90
2023/04/23 04:10:46;;;;;;;4.45;3.88;;;;;;;16.61;47.31;92788.97;4893613;29;20051;-89
2023/04/23 04:13:12;;;;;;;6.78;4.30;;;;;;;16.61;47.66;92788.97;4887829;29;20037;-90
2023/04/23 04:15:37;;;;;;;6.20;4.70;;;;;;;16.57;47.18;92777.63;4901613;29;20055;-90
2023/04/23 04:18:03;;;;;;;5.10;4.07;;;;;;;16.62;47.29;92784.25;4903169;29;20040;-93
2023/04/23 04:20:30;;;;;;;6.53;4.97;;;;;;;16.61;47.26;92778.06;4875452;29;20073;-92
2023/04/23 04:22:55;;;;;;;5.43;4.05;;;;;;;16.65;47.26;92786.72;4905168;29;20052;-90
2023/04/23 04:25:21;;;;;;;14.57;10.80;;;;;;;16.63;47.55;92781.06;4909755;29;20048;-90
2023/04/23 04:27:48;;;;;;;10.93;6.10;;;;;;;16.51;47.38;92776.94;4885155;29;20048;-89
2023/04/23 04:30:13;;;;;;;12.70;5.55;;;;;;;16.45;47.25;92779.72;4895808;29;20171;-90
2023/04/23 04:32:39;;;;;;;7.78;5.18;;;;;;;16.57;46.98;92777.63;4896448;29;20040;-90
2023/04/23 04:35:05;;;;;;;11.50;6.15;;;;;;;16.62;47.07;92784.25;4882520;29;20056;-91
2023/04/23 04:37:31;;;;;;;13.43;5.60;;;;;;;16.61;47.17;92790.97;4913662;29;20067;-91
2023/04/23 04:39:56;;;;;;;12.35;6.00;;;;;;;16.58;47.43;92790.00;4899912;29;20115;-91
2023/04/23 04:42:22;;;;;;;10.35;5.68;;;;;;;16.60;47.23;92787.50;4888512;29;20102;-90
2023/04/23 04:44:47;;;;;;;13.48;6.18;;;;;;;16.62;47.34;92787.00;4911734;29;20044;-90
2023/04/23 04:47:15;;;;;;;7.22;5.47;;;;;;;16.59;47.78;92796.19;4908672;29;20044;-91
2023/04/23 04:49:40;;;;;;;13.75;9.20;;;;;;;16.68;47.34;92793.88;4901642;29;20187;-91
2023/04/23 04:52:06;;;;;;;10.60;6.43;;;;;;;16.59;47.42;92796.94;4890453;29;20040;-91
2023/04/23 04:54:31;;;;;;;9.98;6.22;;;;;;;16.62;47.51;92795.19;4889039;29;20039;-90
2023/04/23 04:56:57;;;;;;;11.10;5.30;;;;;;;16.59;47.49;92788.75;4880513;29;20044;-90
2023/04/23 04:59:22;;;;;;;17.88;9.32;;;;;;;16.57;47.49;92787.78;4907662;29;20052;-90
2023/04/23 05:01:48;;;;;;;18.15;8.77;;;;;;;16.62;47.69;92797.91;4867441;29;20048;-90
2023/04/23 05:04:13;;;;;;;22.35;13.20;;;;;;;16.65;47.06;92791.44;4873233;29;20040;-90
2023/04/23 05:06:39;;;;;;;23.75;13.40;;;;;;;16.63;47.22;92794.69;4876392;29;20507;-91
2023/04/23 05:09:04;;;;;;;36.88;14.63;;;;;;;16.68;47.71;92793.13;4882985;29;20040;-92
2023/04/23 05:11:30;;;;;;;28.20;13.13;;;;;;;16.69;47.24;92797.34;4873412;29;20048;-90
2023/04/23 05:13:55;;;;;;;29.77;11.30;;;;;;;16.62;47.63;92801.38;4898190;29;20036;-89
2023/04/23 05:16:21;;;;;;;18.50;10.35;;;;;;;16.66;47.33;92806.56;4865755;29;20302;-90
2023/04/23 05:18:46;;;;;;;19.23;8.95;;;;;;;16.70;47.05;92812.47;4888044;29;20527;-91
2023/04/23 05:21:12;;;;;;;18.65;10.32;;;;;;;16.70;47.30;92807.00;4886114;29;20033;-91
2023/04/23 05:23:37;;;;;;;20.02;9.70;;;;;;;16.70;47.38;92799.56;4883983;29;20096;-92
2023/04/23 05:26:03;;;;;;;22.38;8.85;;;;;;;16.67;47.33;92805.31;4882004;28;20153;-92
2023/04/23 05:28:29;;;;;;;11.90;7.80;;;;;;;16.70;47.26;92817.91;4908873;29;20054;-90
2023/04/23 05:30:55;;;;;;;17.27;8.07;;;;;;;16.73;47.32;92811.44;4911690;29;20044;-92
2023/04/23 05:33:21;;;;;;;17.73;8.65;;;;;;;16.71;47.40;92813.94;4885053;29;20067;-93
2023/04/23 05:35:47;;;;;;;29.83;19.52;;;;;;;16.74;47.04;92808.19;4873022;29;20089;-88
2023/04/23 05:38:12;;;;;;;42.30;25.27;;;;;;;16.76;47.16;92811.16;4887704;29;20044;-88
2023/04/23 05:40:38;;;;;;;15.25;7.43;;;;;;;16.77;47.45;92809.91;4870034;29;20033;-88
2023/04/23 05:43:05;;;;;;;13.63;7.47;;;;;;;16.78;47.46;92807.91;4907265;29;20045;-87
2023/04/23 05:45:31;;;;;;;17.13;6.75;;;;;;;16.75;47.15;92817.13;4884271;29;20079;-92
2023/04/23 05:47:57;;;;;;;22.17;7.10;;;;;;;16.77;47.26;92811.88;4878278;29;20557;-93
2023/04/23 05:50:22;;;;;;;13.30;6.95;;;;;;;16.79;47.42;92817.56;4867588;29;20048;-92
2023/04/23 05:52:48;;;;;;;12.32;7.55;;;;;;;16.77;47.23;92809.16;4869791;29;20113;-91
2023/04/23 05:55:17;;;;;;;11.30;5.97;;;;;;;16.78;47.34;92816.09;4870705;29;20041;-92
2023/04/23 05:57:42;;;;;;;8.68;5.40;;;;;;;16.74;47.43;92821.09;4879772;29;20048;-92
2023/04/23 06:00:08;;;;;;;11.73;5.45;;;;;;;16.75;47.17;92812.41;4890248;29;20040;-92
2023/04/23 06:02:34;;;;;;;9.15;5.50;;;;;;;16.75;47.36;92822.59;4883793;29;20048;-92
2023/04/23 06:05:00;;;;;;;10.30;5.82;;;;;;;16.81;47.23;92817.06;4876712;29;20048;-92
2023/04/23 06:07:26;;;;;;;10.70;5.60;;;;;;;16.78;47.12;92818.81;4878226;29;20044;-92
2023/04/23 06:09:52;;;;;;;9.00;6.00;;;;;;;16.80;47.10;92816.31;4894541;29;20050;-92
2023/04/23 06:12:17;;;;;;;10.20;6.43;;;;;;;16.79;47.25;92817.56;4881257;29;20071;-92
2023/04/23 06:14:43;;;;;;;9.02;6.00;;;;;;;16.78;47.26;92816.84;4887383;29;20141;-93
2023/04/23 06:17:08;;;;;;;9.93;5.78;;;;;;;16.79;47.53;92823.78;4896049;29;20051;-93
2023/04/23 06:19:34;;;;;;;7.30;5.72;;;;;;;16.77;47.52;92815.34;4876361;29;20131;-92
2023/04/23 06:21:59;;;;;;;7.97;6.40;;;;;;;16.81;47.32;92822.53;4905983;29;20105;-92
2023/04/23 06:24:25;;;;;;;9.23;6.03;;;;;;;16.79;47.37;92820.31;4881792;29;20044;-92
2023/04/23 06:26:50;;;;;;;8.90;5.85;;;;;;;16.81;47.46;92826.00;4907076;29;20055;-93
2023/04/23 06:29:16;;;;;;;9.43;6.57;;;;;;;16.81;47.40;92822.53;4886848;29;20171;-92
2023/04/23 06:31:41;;;;;;;9.05;6.30;;;;;;;16.82;47.26;92824.75;4927373;29;20055;-92
2023/04/23 06:34:07;;;;;;;10.93;5.80;;;;;;;16.80;47.55;92816.31;4880966;29;20179;-91
2023/04/23 06:36:32;;;;;;;9.75;6.80;;;;;;;16.81;47.12;92817.06;4895659;29;20050;-92
2023/04/23 06:38:58;;;;;;;9.38;6.05;;;;;;;16.78;47.34;92816.84;4909784;29;20058;-92
2023/04/23 06:41:23;;;;;;;9.93;6.95;;;;;;;16.80;47.66;92813.59;4899531;29;20064;-92
2023/04/23 06:43:49;;;;;;;9.77;6.40;;;;;;;16.81;47.65;92822.53;4903969;29;20083;-92
2023/04/23 06:46:14;;;;;;;8.68;6.07;;;;;;;16.79;47.58;92815.59;4911774;29;20032;-92
2023/04/23 06:48:40;;;;;;;9.35;6.43;;;;;;;16.85;47.28;92823.72;4880852;29;20521;-92
2023/04/23 06:51:05;;;;;;;7.85;5.90;;;;;;;16.85;47.09;92814.78;4851508;29;20056;-92
2023/04/23 06:53:31;;;;;;;9.60;6.90;;;;;;;16.82;47.45;92824.00;4855869;29;20111;-92
2023/04/23 06:55:57;;;;;;;13.25;7.55;;;;;;;16.84;47.68;92824.22;4846484;29;20080;-93
2023/04/23 06:58:29;;;;;;;34.10;12.23;;;;;;;16.84;47.83;92827.69;4855188;29;20056;-93
2023/04/23 07:00:55;;;;;;;19.60;8.13;;;;;;;16.77;47.55;92814.63;4853138;29;20041;-92
2023/04/23 07:03:20;;;;;;;13.20;8.38;;;;;;;16.82;47.42;92822.00;4846590;29;20049;-91
2023/04/23 07:05:46;;;;;;;22.30;9.65;;;;;;;16.85;47.54;92815.53;4844582;29;20053;-92
2023/04/23 07:08:13;;;;;;;20.25;9.02;;;;;;;16.86;47.57;92822.47;4856370;29;20112;-92
2023/04/23 07:10:38;;;;;;;16.48;8.02;;;;;;;16.86;47.51;92822.47;4854755;29;20275;-91
2023/04/23 07:13:04;;;;;;;17.45;9.25;;;;;;;16.87;47.57;92815.75;4851740;29;20881;-93
2023/04/23 07:15:29;;;;;;;17.05;8.30;;;;;;;16.88;47.71;92817.22;4871314;29;20059;-92
2023/04/23 07:17:56;;;;;;;15.68;9.85;;;;;;;16.85;47.25;92822.97;4858437;29;20056;-92
2023/04/23 07:20:22;;;;;;;10.13;7.85;;;;;;;16.89;47.65;92823.44;4878221;29;20040;-93
2023/04/23 07:22:49;;;;;;;14.98;8.75;;;;;;;16.88;47.36;92813.75;4881867;29;20103;-93
2023/04/23 07:25:15;;;;;;;20.08;9.55;;;;;;;16.87;47.57;92821.22;4880231;29;20047;-93
2023/04/23 07:27:40;;;;;;;16.13;9.55;;;;;;;16.88;47.68;92822.69;4898036;29;20048;-92
2023/04/23 07:30:06;;;;;;;19.50;9.65;;;;;;;16.85;47.42;92817.53;4893820;29;20039;-92
2023/04/23 07:32:32;;;;;;;18.20;9.82;;;;;;;16.90;47.58;92811.22;4888056;29;20039;-92
2023/04/23 07:34:57;;;;;;;19.92;9.88;;;;;;;16.90;47.41;92822.16;4888897;29;20416;-92
2023/04/23 07:37:24;;;;;;;19.42;9.00;;;;;;;16.90;47.72;92817.44;4907725;29;20052;-92
2023/04/23 07:39:49;;;;;;;14.45;8.43;;;;;;;16.94;47.40;92819.88;4889636;29;20090;-92
2023/04/23 07:42:15;;;;;;;19.58;10.02;;;;;;;16.83;47.52;92826.22;4890281;29;20076;-92
2023/04/23 07:44:40;;;;;;;20.02;9.25;;;;;;;16.94;47.58;92817.13;4896098;29;20047;-92
2023/04/23 07:47:06;;;;;;;15.27;8.38;;;;;;;16.94;47.46;92820.59;4886391;29;20482;-92
2023/04/23 07:49:32;;;;;;;13.60;7.57;;;;;;;16.91;47.35;92818.91;4899619;29;20035;-92
2023/04/23 07:51:57;;;;;;;15.00;8.13;;;;;;;16.88;47.47;92825.41;4885252;29;20049;-92
2023/04/23 07:54:23;;;;;;;15.77;8.80;;;;;;;16.90;47.52;92822.16;4897300;29;20044;-93
2023/04/23 07:56:48;;;;;;;11.95;7.30;;;;;;;16.89;47.71;92824.13;4893053;29;20087;-92
2023/04/23 07:59:14;;;;;;;10.18;6.70;;;;;;;16.94;47.29;92825.34;4894290;29;20182;-92
2023/04/23 08:01:40;;;;;;;14.23;7.32;;;;;;;16.93;47.71;92827.31;4885521;29;20040;-92
2023/04/23 08:04:06;;;;;;;15.48;7.25;;;;;;;16.92;47.53;92825.84;4886409;29;20051;-92
2023/04/23 08:06:34;;;;;;;11.88;6.63;;;;;;;16.95;47.54;92821.34;4905145;29;20055;-92
2023/04/23 08:09:00;;;;;;;10.68;6.75;;;;;;;16.95;47.37;92832.28;4911104;29;20073;-92
2023/04/23 08:11:28;;;;;;;10.95;7.43;;;;;;;16.94;47.23;92826.06;4905231;29;20540;-92
2023/04/23 08:13:53;;;;;;;15.77;7.93;;;;;;;16.97;47.55;92833.22;4900010;29;20127;-93
2023/04/23 08:16:19;;;;;;;14.88;7.82;;;;;;;16.95;47.89;92830.28;4913666;29;20064;-92
2023/04/23 08:18:47;;;;;;;11.00;7.38;;;;;;;16.95;47.36;92827.56;4919461;29;20040;-92
2023/04/23 08:21:13;;;;;;;12.95;6.63;;;;;;;16.95;47.63;92830.28;4893376;29;20406;-92
2023/04/23 08:23:38;;;;;;;12.63;7.32;;;;;;;16.99;47.36;92824.53;4895068;29;20056;-93
2023/04/23 08:26:04;;;;;;;14.50;8.27;;;;;;;16.99;47.47;92830.00;4914011;29;20486;-92
2023/04/23 08:28:29;;;;;;;14.45;8.10;;;;;;;16.99;47.58;92835.44;4883923;29;20047;-92
2023/04/23 08:30:55;;;;;;;13.30;9.05;;;;;;;16.96;47.40;92834.50;4880341;29;20516;-92
2023/04/23 08:33:21;;;;;;;13.48;8.35;;;;;;;16.98;47.41;92831.97;4903464;29;20059;-92
2023/04/23 08:35:47;;;;;;;14.90;9.13;;;;;;;17.00;47.58;92831.47;4899214;29;20051;-92
2023/04/23 08:38:12;;;;;;;20.17;9.23;;;;;;;17.01;47.65;92838.41;4894833;29;20048;-92
2023/04/23 08:40:38;;;;;;;14.00;9.07;;;;;;;17.01;47.48;92835.69;4894503;29;20043;-92
2023/04/23 08:43:11;;;;;;;12.98;8.70;;;;;;;16.98;47.41;92834.72;4892788;29;20047;-92
2023/04/23 08:45:40;;;;;;;14.88;9.35;;;;;;;17.01;47.54;92839.16;4902622;29;20118;-91
2023/04/23 08:48:05;;;;;;;14.60;9.15;;;;;;;17.03;47.37;92833.91;4901380;29;20147;-92
2023/04/23 08:50:31;;;;;;;14.32;9.25;;;;;;;16.98;47.82;92834.72;4882401;29;20040;-92
2023/04/23 08:52:57;;;;;;;12.63;9.00;;;;;;;16.98;47.69;92826.53;4881715;29;20044;-92
2023/04/23 08:55:23;;;;;;;16.27;9.32;;;;;;;17.03;47.13;92830.44;4889336;29;20126;-92
2023/04/23 08:57:49;;;;;;;19.67;10.32;;;;;;;17.00;47.91;92828.75;4898458;29;20127;-92
2023/04/23 09:00:16;;;;;;;14.45;9.38;;;;;;;17.02;47.71;92828.97;4896849;29;20036;-92
2023/04/23 09:02:43;;;;;;;14.00;9.60;;;;;;;17.00;47.89;92828.75;4886057;29;20039;-92
2023/04/23 09:05:08;;;;;;;13.63;9.20;;;;;;;17.02;47.54;92820.78;4884029;29;20099;-92
2023/04/23 09:07:34;;;;;;;15.63;9.00;;;;;;;17.04;47.57;92826.47;4878344;29;20134;-92
2023/04/23 09:10:01;;;;;;;18.00;9.75;;;;;;;17.04;47.63;92821.72;4885352;29;20139;-92
2023/04/23 09:12:27;;;;;;;13.30;9.50;;;;;;;17.06;47.55;92821.22;4889154;29;20123;-92
2023/04/23 09:14:52;;;;;;;13.25;9.10;;;;;;;17.05;47.82;92820.47;4892175;29;20139;-92
2023/04/23 09:17:18;;;;;;;11.77;8.38;;;;;;;17.07;47.29;92822.69;4888805;29;20056;-92
2023/04/23 09:19:45;;;;;;;16.83;9.60;;;;;;;17.06;47.72;92832.88;4895043;29;20108;-92
2023/04/23 09:22:11;;;;;;;14.98;9.02;;;;;;;17.09;47.19;92820.19;4893564;29;20037;-93
2023/04/23 09:24:42;;;;;;;11.07;8.50;;;;;;;17.05;47.58;92825.94;4923069;29;20044;-91
2023/04/23 09:27:08;;;;;;;11.80;8.90;;;;;;;17.00;47.47;92824.03;4906757;29;20067;-92
2023/04/23 09:29:33;;;;;;;19.92;12.25;;;;;;;17.00;47.31;92821.28;4908722;29;20036;-93
2023/04/23 09:32:07;;;;;;;13.52;11.15;;;;;;;16.98;47.61;92814.88;4914751;29;20235;-92
2023/04/23 09:34:33;;;;;;;14.85;12.10;;;;;;;17.06;47.54;92810.31;4917722;29;20035;-92
2023/04/23 09:37:00;;;;;;;15.90;11.52;;;;;;;17.05;47.30;92809.56;4926387;29;20062;-93
2023/04/23 09:39:25;;;;;;;14.00;10.77;;;;;;;17.08;47.77;92808.53;4905952;29;20046;-92
2023/04/23 09:41:52;;;;;;;21.90;16.20;;;;;;;17.05;47.89;92806.84;4932110;29;20047;-92
2023/04/23 09:44:18;;;;;;;17.25;12.75;;;;;;;17.09;47.54;92801.09;4907948;29;20040;-92
2023/04/23 09:46:44;;;;;;;16.27;12.85;;;;;;;17.11;47.53;92804.00;4924998;29;20043;-92
2023/04/23 09:49:10;;;;;;;13.85;10.13;;;;;;;17.05;47.75;92797.91;4906357;29;20492;-92
2023/04/23 09:51:38;;;;;;;11.05;9.30;;;;;;;17.12;47.54;92789.09;4911149;29;20372;-92
2023/04/23 09:54:03;;;;;;;13.05;9.77;;;;;;;17.10;47.56;92803.25;4892986;29;20706;-91
2023/04/23 09:56:31;;;;;;;13.07;9.23;;;;;;;17.13;47.30;92785.13;4882070;29;20503;-91
2023/04/23 09:58:56;;;;;;;10.80;8.20;;;;;;;17.11;47.58;92791.09;4881212;29;20040;-92
2023/04/23 10:01:28;;;;;;;12.50;9.20;;;;;;;17.08;47.74;92796.88;4890957;29;22638;-92
2023/04/23 10:03:55;;;;;;;13.98;8.20;;;;;;;17.08;47.35;92792.16;4900936;29;20099;-92
2023/04/23 10:06:27;;;;;;;10.60;8.25;;;;;;;17.09;47.81;92788.16;4882476;29;20040;-92
2023/04/23 10:08:55;;;;;;;11.27;9.00;;;;;;;17.12;47.54;92780.91;4901885;29;20102;-92
2023/04/23 10:11:25;;;;;;;14.52;9.63;;;;;;;17.12;47.63;92778.91;4892999;29;20187;-92
2023/04/23 10:13:50;;;;;;;14.63;11.20;;;;;;;17.12;47.90;92773.44;4888794;29;20722;-93
2023/04/23 10:16:18;;;;;;;38.60;29.88;;;;;;;17.11;47.88;92773.97;4885996;29;20042;-91
2023/04/23 10:18:43;;;;;;;19.35;14.20;;;;;;;17.14;47.59;92770.94;4891633;29;20071;-92
2023/04/23 10:21:10;;;;;;;25.20;18.50;;;;;;;17.15;47.82;92763.50;4895695;29;20052;-92
2023/04/23 10:23:36;;;;;;;18.92;14.05;;;;;;;17.14;47.78;92768.22;4896199;29;20043;-92
2023/04/23 10:26:01;;;;;;;17.23;12.63;;;;;;;17.13;47.60;92766.00;4886059;29;20054;-92
2023/04/23 10:28:30;;;;;;;17.38;12.68;;;;;;;17.13;47.93;92766.00;4898923;29;20045;-92
2023/04/23 10:30:56;;;;;;;14.98;12.57;;;;;;;17.14;47.76;92760.00;4882621;29;20122;-92
2023/04/23 10:33:22;;;;;;;14.02;10.98;;;;;;;17.15;47.65;92763.50;4887214;29;20522;-92
2023/04/23 10:35:47;;;;;;;19.35;11.77;;;;;;;17.17;47.37;92760.97;4884537;29;20147;-92
2023/04/23 10:38:13;;;;;;;17.50;11.60;;;;;;;17.17;48.21;92755.53;4896791;29;20514;-92
2023/04/23 10:40:39;;;;;;;18.60;10.70;;;;;;;17.19;47.96;92757.72;4889519;29;20058;-92
2023/04/23 10:43:04;;;;;;;17.15;10.40;;;;;;;17.17;47.50;92752.78;4888294;29;20048;-92
2023/04/23 10:45:30;;;;;;;17.40;10.55;;;;;;;17.20;47.69;92751.75;4897705;29;20040;-92
2023/04/23 10:47:56;;;;;;;21.50;10.57;;;;;;;17.19;47.90;92757.72;4880549;29;20070;-93
2023/04/23 10:50:23;;;;;;;18.92;10.80;;;;;;;17.14;48.05;92748.34;4899256;29;20048;-92
2023/04/23 10:52:55;;;;;;;16.25;10.60;;;;;;;17.16;47.69;92745.84;4893517;29;20040;-92
2023/04/23 10:55:26;;;;;;;18.20;10.40;;;;;;;17.17;47.83;92744.59;4886385;29;20044;-92
2023/04/23 10:58:05;;;;;;;20.27;12.05;;;;;;;17.19;47.55;92746.81;4883113;29;20050;-93
2023/04/23 11:00:39;;;;;;;22.45;16.35;;;;;;;17.15;47.73;92747.09;4912344;29;20055;-92
2023/04/23 11:03:09;;;;;;;23.48;17.15;;;;;;;17.17;47.98;92755.53;4929294;29;20096;-92
2023/04/23 11:05:35;;;;;;;23.53;16.13;;;;;;;17.16;47.82;92747.84;4901773;29;20056;-92
2023/04/23 11:08:05;;;;;;;21.90;13.20;;;;;;;17.17;48.03;92747.31;4938841;29;20102;-92
2023/04/23 11:10:32;;;;;;;19.20;13.65;;;;;;;17.17;48.11;92743.84;4912188;29;20114;-92
2023/04/23 11:13:21;;;;;;;16.35;12.05;;;;;;;17.17;47.50;92743.84;4915454;29;20040;-92
2023/04/23 11:15:46;;;;;;;25.95;12.30;;;;;;;17.21;47.61;92734.09;4895123;29;20094;-93
2023/04/23 11:18:12;;;;;;;19.45;12.57;;;;;;;17.20;48.12;92742.81;4907269;29;20071;-93
2023/04/23 11:20:37;;;;;;;14.98;10.55;;;;;;;17.22;47.76;92737.59;4906612;29;20455;-93